ADDS METAR Data INFO
IDs: Format: Raw Decoded Include TAF

Data at: 1045 UTC 19 Oct 2017

KDUA 191035Z AUTO 00000KT 10SM 09/07 A3015 RMK AO2
KDUA 191015Z AUTO 00000KT 10SM 09/07 A3014 RMK AO2
KDUA 190955Z AUTO 00000KT 10SM 09/07 A3013 RMK AO2
KDUA 190935Z AUTO 15003KT 10SM 10/07 A3013 RMK AO2
KDUA 190915Z AUTO 16004KT 7SM 10/07 A3013 RMK AO2
KDUA 190855Z AUTO 16004KT 7SM 10/08 A3013 RMK AO2
KDUA 190835Z AUTO 00000KT 10SM 10/08 A3014 RMK AO2
KDUA 190815Z AUTO 00000KT 10SM 10/07 A3014 RMK AO2
KDUA 190755Z AUTO 00000KT 10SM 11/07 A3014 RMK AO2
KDUA 190735Z AUTO 00000KT 7SM 11/07 A3014 RMK AO2
KDUA 190715Z AUTO 00000KT 10SM 11/07 A3014 RMK AO2
KDUA 190655Z AUTO 07003KT 10SM 11/07 A3013 RMK AO2
KDUA 190635Z AUTO 08003KT 10SM 11/07 A3013 RMK AO2
KDUA 190615Z AUTO 00000KT 10SM 12/07 A3012 RMK AO2
KDUA 190555Z AUTO 00000KT 10SM 13/07 A3012 RMK AO2
KDUA 190535Z AUTO 18003KT 7SM 13/07 A3012 RMK AO2
KDUA 190515Z AUTO 18004KT 5SM HZ 13/07 A3012 RMK AO2
KDUA 190455Z AUTO 18005KT 10SM 13/08 A3011 RMK AO2
KDUA 190435Z AUTO 17006KT 7SM 13/07 A3011 RMK AO2
KDUA 190415Z AUTO 14003KT 10SM 13/07 A3012 RMK AO2
KDUA 190355Z AUTO 15004KT 7SM 13/07 A3012 RMK AO2
KDUA 190335Z AUTO 16003KT 10SM 13/08 A3012 RMK AO2
KDUA 190315Z AUTO 15005KT 10SM 13/08 A3012 RMK AO2
KDUA 190255Z AUTO 15005KT 10SM 14/08 A3012 RMK AO2
KDUA 190235Z AUTO 15003KT 10SM 15/08 A3011 RMK AO2
KDUA 190215Z AUTO 15005KT 10SM 15/07 A3011 RMK AO2
KDUA 190155Z AUTO 14004KT 10SM 16/07 A3012 RMK AO2
KDUA 190135Z AUTO 14005KT 10SM 16/07 A3011 RMK AO2
KDUA 190115Z AUTO 13003KT 10SM 16/06 A3012 RMK AO2
KDUA 190055Z AUTO 14004KT 10SM 17/07 A3011 RMK AO2
KDUA 190035Z AUTO 14004KT 10SM 17/07 A3011 RMK AO2
KDUA 190015Z AUTO 14005KT 10SM 18/08 A3010 RMK AO2
KDUA 182355Z AUTO 13003KT 10SM 20/08 A3010 RMK AO2
KDUA 182335Z AUTO 14004KT 10SM 22/07 A3009 RMK AO2
KDUA 182315Z AUTO 16003KT 10SM 24/07 A3009 RMK AO2
KDUA 182255Z AUTO 16005KT 10SM 25/06 A3008 RMK AO2
KDUA 182235Z AUTO 16007KT 10SM 26/06 A3008 RMK AO2
KDUA 182215Z AUTO 17008KT 10SM 26/06 A3008 RMK AO2
KDUA 182155Z AUTO 18008KT 10SM 27/05 A3008 RMK AO2
KDUA 182135Z AUTO 19009KT 10SM 27/06 A3008 RMK AO2
KDUA 182115Z AUTO 17011KT 10SM 27/05 A3008 RMK AO2
KDUA 182055Z AUTO 17008KT 10SM 27/06 A3009 RMK AO2
KDUA 182035Z AUTO 20007KT 10SM 27/06 A3009 RMK AO2
KDUA 182015Z AUTO 17006G15KT 10SM 26/06 A3009 RMK AO2
KDUA 181955Z AUTO 19006G10KT 10SM 26/06 A3010 RMK AO2
KDUA 181935Z AUTO 19010KT 10SM 25/06 A3011 RMK AO2
KDUA 181915Z AUTO 19012G15KT 10SM 25/07 A3012 RMK AO2
KDUA 181855Z AUTO 19009KT 10SM 25/08 A3013 RMK AO2
KDUA 181835Z AUTO 19009KT 10SM 25/07 A3014 RMK AO2
KDUA 181815Z AUTO 17010KT 10SM 24/07 A3015 RMK AO2
KDUA 181755Z AUTO 18008KT 10SM 23/07 A3016 RMK AO2
KDUA 181735Z AUTO 19009KT 10SM 23/07 A3017 RMK AO2
KDUA 181715Z AUTO 17008KT 10SM 22/07 A3017 RMK AO2
KDUA 181655Z AUTO 18007KT 10SM 21/08 A3017 RMK AO2
KDUA 181635Z AUTO 19007KT 150V210 10SM 21/09 A3018 RMK AO2
KDUA 181615Z AUTO 18008KT 10SM 20/09 A3018 RMK AO2
KDUA 181555Z AUTO 18008KT 10SM 19/09 A3018 RMK AO2
KDUA 181535Z AUTO 16008KT 10SM 18/10 A3019 RMK AO2
KDUA 181515Z AUTO 18008KT 10SM 17/10 A3019 RMK AO2
KDUA 181455Z AUTO 18005KT 10SM 15/10 A3018 RMK AO2
KDUA 181435Z AUTO 16004KT 10SM 13/10 A3018 RMK AO2
KDUA 181415Z AUTO 16005KT 10SM 12/09 A3017 RMK AO2
KDUA 181355Z AUTO 15004KT 10SM 11/08 A3017 RMK AO2
KDUA 181335Z AUTO 00000KT 10SM 10/08 A3017 RMK AO2
KDUA 181315Z AUTO 00000KT 10SM 08/07 A3016 RMK AO2
KDUA 181255Z AUTO 00000KT 10SM 07/06 A3017 RMK AO2
KDUA 181235Z AUTO 16003KT 10SM 06/06 A3016 RMK AO2
KDUA 181215Z AUTO 17003KT 10SM 06/05 A3016 RMK AO2
KDUA 181155Z AUTO 12003KT 10SM 06/05 A3015 RMK AO2
KDUA 181135Z AUTO 00000KT 10SM 07/05 A3015 RMK AO2
KDUA 181115Z AUTO 00000KT 10SM 07/05 A3015 RMK AO2
KDUA 181055Z AUTO 00000KT 10SM 07/06 A3015 RMK AO2
KDUA 181035Z AUTO 00000KT 10SM 07/06 A3015 RMK AO2
KDUA 181015Z AUTO 00000KT 10SM 07/06 A3015 RMK AO2
KDUA 180955Z AUTO 15003KT 10SM 08/06 A3014 RMK AO2
KDUA 180935Z AUTO 14003KT 10SM 08/06 A3014 RMK AO2
KDUA 180915Z AUTO 14003KT 10SM 08/06 A3014 RMK AO2
KDUA 180855Z AUTO 13003KT 10SM 09/06 A3015 RMK AO2
KDUA 180835Z AUTO 00000KT 10SM 09/06 A3015 RMK AO2
KDUA 180815Z AUTO 15003KT 10SM 10/06 A3015 RMK AO2
KDUA 180755Z AUTO 15005KT 10SM 09/06 A3016 RMK AO2
KDUA 180735Z AUTO 15006KT 10SM 08/06 A3016 RMK AO2
KDUA 180715Z AUTO 15005KT 10SM 08/06 A3016 RMK AO2
KDUA 180655Z AUTO 15004KT 10SM 08/06 A3016 RMK AO2
KDUA 180635Z AUTO 14003KT 10SM 08/06 A3017 RMK AO2
KDUA 180615Z AUTO 14003KT 10SM 08/06 A3017 RMK AO2
KDUA 180555Z AUTO 00000KT 10SM 08/06 A3017 RMK AO2
KDUA 180535Z AUTO 14003KT 10SM 09/06 A3017 RMK AO2
KDUA 180515Z AUTO 00000KT 10SM 08/06 A3017 RMK AO2
KDUA 180455Z AUTO 00000KT 10SM 09/06 A3018 RMK AO2
KDUA 180435Z AUTO 00000KT 10SM 09/06 A3018 RMK AO2
KDUA 180415Z AUTO 00000KT 10SM 09/06 A3017 RMK AO2
KDUA 180355Z AUTO 00000KT 10SM 10/06 A3017 RMK AO2
KDUA 180335Z AUTO 00000KT 10SM 10/06 A3017 RMK AO2
KDUA 180315Z AUTO 00000KT 10SM 11/06 A3017 RMK AO2
KDUA 180255Z AUTO 00000KT 10SM 11/06 A3017 RMK AO2
KDUA 180235Z AUTO 00000KT 10SM 11/06 A3016 RMK AO2
KDUA 180215Z AUTO 00000KT 10SM 12/07 A3016 RMK AO2
KDUA 180155Z AUTO 14003KT 10SM 12/06 A3015 RMK AO2
KDUA 180135Z AUTO 13003KT 10SM 12/07 A3016 RMK AO2
KDUA 180120Z AUTO 00000KT 13/07 A3016 RMK AO2 PWINO
KDUA 180055Z AUTO 00000KT 10SM 13/07 A3016 RMK AO2
KDUA 180035Z AUTO 12003KT 10SM 15/07 A3016 RMK AO2
KDUA 180015Z AUTO 00000KT 10SM 16/06 A3016 RMK AO2
KDUA 172355Z AUTO 00000KT 10SM 18/06 A3015 RMK AO2
KDUA 172335Z AUTO 14004KT 10SM 21/05 A3015 RMK AO2
KDUA 172315Z AUTO 14005KT 10SM 22/05 A3015 RMK AO2
KDUA 172255Z AUTO 15006KT 10SM 22/05 A3016 RMK AO2